Portada
METAR-TAF:

METAR-TAF

Aeroports :

Merimbula, Austràlia

latitud: 36-54-31S, longitud: 149-54-05E, altitud: 2 m

Observació

L'informe es va fer fa 10 minuts, a les 16:00 UTC
Vent calma
Temperatura 19°C
Humitat 94%
Pressió 1015 hPa
Visibilitat 10 km o més
Núvols disperses a una alçada de 2100 ft
Cel ennuvolat a una alçada de 2900 ft
Cel cobert a una alçada de 3500 ft

METAR: YMER 201600Z AUTO 00000KT 9999 // SCT021 BKN029 OVC035 19/18 Q1015

Hora: 03:10 (16:10 UTC)


TAF: manca

Observacions i pronòstics meteorològics de més de 4000 aeroports (METAR i TAF).

Les estacions disponibles són els punts grocs i vermells al mapa.

Posi el ratolí al punt desitjat per veure el nom de l'estació.

Feu clic per veure les observacions i els pronòstics meteorològics.

Per canviar el mapa: feu clic els botons verds amb una creu de color negre per apropar; al botó verd amb un guió per allunyar la imatge; o en les fletxes verdes per a mapes adjacents.


METAR-TAF: